createdAt,value
2023-03-21T00:00:58.323Z,69.13
2023-03-21T00:03:26.165Z,67.13
2023-03-21T00:05:57.245Z,67.43
2023-03-21T00:08:25.358Z,65.28
2023-03-21T00:10:56.891Z,70.95
2023-03-21T00:13:24.328Z,67.85
2023-03-21T00:16:05.981Z,75.90
2023-03-21T00:18:42.357Z,72.22
2023-03-21T00:24:00.651Z,76.53
2023-03-21T00:26:28.136Z,72.43
2023-03-21T00:28:55.728Z,72.72
2023-03-21T00:31:23.449Z,69.22
2023-03-21T00:33:50.729Z,66.80
2023-03-21T00:36:18.145Z,69.43
2023-03-21T00:38:46.103Z,68.38
2023-03-21T00:41:25.924Z,67.00
2023-03-21T00:44:00.776Z,57.40
2023-03-21T00:46:39.767Z,65.43
2023-03-21T00:49:09.992Z,63.30
2023-03-21T00:51:37.217Z,68.90
2023-03-21T00:54:05.818Z,66.63
2023-03-21T00:56:33.609Z,63.45
2023-03-21T00:59:00.858Z,66.28
2023-03-21T01:01:32.266Z,63.88
2023-03-21T01:04:07.870Z,66.47
2023-03-21T01:06:40.818Z,63.28
2023-03-21T01:09:08.729Z,66.15
2023-03-21T01:11:36.108Z,68.97
2023-03-21T01:14:21.390Z,68.18
2023-03-21T01:16:52.141Z,69.55
2023-03-21T01:19:27.618Z,69.40
2023-03-21T01:21:58.901Z,69.30
2023-03-21T01:24:26.003Z,67.30
2023-03-21T01:26:53.608Z,66.00
2023-03-21T01:29:21.079Z,71.65
2023-03-21T01:31:48.419Z,67.00
2023-03-21T01:34:15.909Z,69.38
2023-03-21T01:36:43.312Z,70.95
2023-03-21T01:39:10.684Z,76.60
2023-03-21T01:41:43.352Z,68.47
2023-03-21T01:44:15.048Z,71.10
2023-03-21T01:46:51.769Z,71.45
2023-03-21T01:49:36.221Z,72.90
2023-03-21T01:52:20.939Z,72.60
2023-03-21T01:54:52.668Z,67.63
2023-03-21T01:57:25.878Z,67.50
2023-03-21T01:59:55.582Z,74.60
2023-03-21T02:02:25.634Z,75.88
2023-03-21T02:04:56.215Z,77.72
2023-03-21T02:07:29.349Z,73.85
2023-03-21T02:09:57.052Z,69.05
2023-03-21T02:12:25.082Z,68.78
2023-03-21T02:14:53.710Z,65.45
2023-03-21T02:17:28.035Z,60.10
2023-03-21T02:19:56.743Z,57.85
2023-03-21T02:22:33.140Z,60.67
2023-03-21T02:25:06.057Z,58.25
2023-03-21T02:27:42.609Z,62.78
2023-03-21T02:30:50.944Z,69.82
2023-03-21T02:33:31.810Z,75.70
2023-03-21T02:36:11.948Z,76.63
2023-03-21T02:39:11.782Z,72.18
2023-03-21T02:41:46.694Z,72.05
2023-03-21T02:44:21.396Z,74.10
2023-03-21T02:47:03.210Z,65.68
2023-03-21T02:49:38.461Z,56.38
2023-03-21T02:52:15.519Z,54.00
2023-03-21T02:54:50.179Z,51.47
2023-03-21T02:57:18.702Z,56.22
2023-03-21T02:59:53.834Z,57.58
2023-03-21T03:02:26.353Z,55.08
2023-03-21T03:04:53.924Z,55.88
2023-03-21T03:07:41.812Z,56.22
2023-03-21T03:10:19.841Z,57.97
2023-03-21T03:13:06.345Z,54.60
2023-03-21T03:15:36.420Z,54.97
2023-03-21T03:18:06.958Z,59.35
2023-03-21T03:23:06.998Z,55.73
2023-03-21T03:25:43.659Z,57.70
2023-03-21T03:28:12.515Z,67.95
2023-03-21T03:30:51.042Z,59.92
2023-03-21T03:33:25.331Z,57.95
2023-03-21T03:36:04.375Z,62.33
2023-03-21T03:38:35.095Z,62.33
2023-03-21T03:41:06.003Z,55.28
2023-03-21T03:43:41.566Z,61.78
2023-03-21T03:46:27.785Z,54.17
2023-03-21T03:49:03.486Z,63.17
2023-03-21T03:51:33.297Z,59.30
2023-03-21T03:54:22.462Z,63.97
2023-03-21T03:56:50.051Z,61.22
2023-03-21T03:59:26.142Z,63.08
2023-03-21T04:01:53.843Z,61.42
2023-03-21T04:04:22.980Z,64.25
2023-03-21T04:06:52.102Z,68.32
2023-03-21T04:09:25.073Z,90.03
2023-03-21T04:11:58.992Z,73.55
2023-03-21T04:14:35.652Z,69.60
2023-03-21T04:17:11.437Z,63.75
2023-03-21T04:19:38.929Z,65.22
2023-03-21T04:22:06.676Z,67.63
2023-03-21T04:24:34.214Z,64.55
2023-03-21T04:27:02.513Z,62.90
2023-03-21T04:29:29.949Z,63.25
2023-03-21T04:31:59.188Z,60.47
2023-03-21T04:34:28.038Z,59.28
2023-03-21T04:36:56.173Z,58.20
2023-03-21T04:39:27.226Z,63.38
2023-03-21T04:41:54.686Z,60.13
2023-03-21T04:44:21.977Z,63.30
2023-03-21T04:46:50.324Z,74.53
2023-03-21T04:49:19.022Z,72.28
2023-03-21T04:51:47.122Z,68.82
2023-03-21T04:56:43.782Z,62.13
2023-03-21T04:59:12.253Z,61.78
2023-03-21T05:01:41.295Z,62.22
2023-03-21T05:04:08.809Z,62.30
2023-03-21T05:06:36.700Z,66.72
2023-03-21T05:09:07.980Z,65.20
2023-03-21T05:11:37.814Z,66.40
2023-03-21T05:14:11.802Z,73.13
2023-03-21T05:16:49.041Z,67.25
2023-03-21T05:19:18.002Z,57.80
2023-03-21T05:21:47.206Z,60.35
2023-03-21T05:24:16.799Z,55.35
2023-03-21T05:26:44.871Z,58.25
2023-03-21T05:29:12.124Z,59.35
2023-03-21T05:31:39.570Z,68.50
2023-03-21T05:34:07.468Z,65.82
2023-03-21T05:36:43.721Z,60.75
2023-03-21T05:39:11.196Z,59.53
2023-03-21T05:41:38.329Z,62.05
2023-03-21T05:44:05.747Z,57.53
2023-03-21T05:46:32.930Z,67.43
2023-03-21T05:49:00.459Z,68.55
2023-03-21T05:51:27.689Z,72.93
2023-03-21T05:53:54.948Z,67.40
2023-03-21T05:56:22.632Z,65.25
2023-03-21T05:58:50.460Z,66.22
2023-03-21T06:01:18.345Z,63.47
2023-03-21T06:03:46.145Z,61.72
2023-03-21T06:06:13.455Z,64.80
2023-03-21T06:08:40.821Z,64.47
2023-03-21T06:11:12.975Z,65.55
2023-03-21T06:13:40.416Z,67.47
2023-03-21T06:16:08.055Z,66.22
2023-03-21T06:18:35.467Z,77.53
2023-03-21T06:21:02.659Z,69.20
2023-03-21T06:23:30.222Z,69.90
2023-03-21T06:26:37.361Z,71.90
2023-03-21T06:31:51.718Z,71.20
2023-03-21T06:34:18.953Z,69.53
2023-03-21T06:36:47.254Z,66.35
2023-03-21T06:39:22.857Z,60.53
2023-03-21T06:42:00.159Z,63.97
2023-03-21T06:44:27.832Z,66.15
2023-03-21T06:46:55.022Z,64.38
2023-03-21T06:49:22.206Z,64.45
2023-03-21T06:51:49.428Z,63.03
2023-03-21T06:54:17.913Z,64.18
2023-03-21T06:56:45.529Z,66.03
2023-03-21T06:59:12.864Z,70.38
2023-03-21T07:01:40.260Z,60.42
2023-03-21T07:04:07.546Z,67.45
2023-03-21T07:06:34.844Z,71.60
2023-03-21T07:09:02.767Z,68.70
2023-03-21T07:11:29.878Z,71.32
2023-03-21T07:13:57.421Z,72.53
2023-03-21T07:16:25.180Z,67.20
2023-03-21T07:18:52.594Z,68.82
2023-03-21T07:21:20.055Z,70.70
2023-03-21T07:23:49.669Z,72.82
2023-03-21T07:26:18.479Z,67.30
2023-03-21T07:28:46.168Z,72.43
2023-03-21T07:31:15.141Z,63.92
2023-03-21T07:33:42.518Z,68.70
2023-03-21T07:36:17.190Z,69.53
2023-03-21T07:38:46.090Z,66.40
2023-03-21T07:41:13.922Z,67.90
2023-03-21T07:43:41.196Z,64.22
2023-03-21T07:46:08.480Z,58.30
2023-03-21T07:48:35.616Z,63.53
2023-03-21T07:51:02.785Z,62.75
2023-03-21T07:53:30.167Z,58.88
2023-03-21T07:55:57.305Z,55.78
2023-03-21T07:58:25.667Z,57.08
2023-03-21T08:00:53.174Z,66.07
2023-03-21T08:03:20.513Z,62.53
2023-03-21T08:05:49.406Z,59.70
2023-03-21T08:08:16.606Z,63.70
2023-03-21T08:10:46.885Z,58.42
2023-03-21T08:13:20.828Z,57.08
2023-03-21T08:15:48.115Z,55.80
2023-03-21T08:18:15.280Z,58.85
2023-03-21T08:20:42.506Z,58.13
2023-03-21T08:23:09.643Z,53.65
2023-03-21T08:25:37.204Z,59.35
2023-03-21T08:28:04.660Z,55.35
2023-03-21T08:30:34.688Z,55.38
2023-03-21T08:33:02.359Z,55.78
2023-03-21T08:35:29.898Z,54.25
2023-03-21T08:37:57.359Z,47.38
2023-03-21T08:40:24.718Z,46.55
2023-03-21T08:42:51.898Z,45.45
2023-03-21T08:45:19.290Z,46.85
2023-03-21T08:47:47.632Z,47.90
2023-03-21T08:50:16.876Z,40.83
2023-03-21T08:52:44.302Z,47.22
2023-03-21T08:55:15.260Z,44.28
2023-03-21T08:57:42.625Z,51.72
2023-03-21T09:00:14.640Z,46.13
2023-03-21T09:02:42.913Z,46.30
2023-03-21T09:05:11.952Z,40.65
2023-03-21T09:07:41.105Z,40.88
2023-03-21T09:10:25.691Z,43.33
2023-03-21T09:12:54.426Z,42.83
2023-03-21T09:15:25.333Z,47.53
2023-03-21T09:17:54.408Z,37.63
2023-03-21T09:20:30.944Z,42.58
2023-03-21T09:22:59.485Z,43.88
2023-03-21T09:25:32.186Z,45.28
2023-03-21T09:28:00.467Z,46.20
2023-03-21T09:30:28.722Z,48.35
2023-03-21T09:32:56.157Z,58.40
2023-03-21T09:35:24.748Z,58.85
2023-03-21T09:37:52.358Z,58.08
2023-03-21T09:40:40.228Z,57.83
2023-03-21T09:43:17.186Z,52.30
2023-03-21T09:45:50.777Z,52.88
2023-03-21T09:48:31.891Z,48.53
2023-03-21T09:50:59.458Z,55.88
2023-03-21T09:53:30.959Z,50.75
2023-03-21T09:55:59.688Z,53.13
2023-03-21T09:58:29.598Z,52.65
2023-03-21T10:01:01.307Z,50.47
2023-03-21T10:03:35.140Z,48.90
2023-03-21T10:06:05.485Z,52.25
2023-03-21T10:08:34.179Z,50.60
2023-03-21T10:11:03.781Z,50.10
2023-03-21T10:13:33.801Z,53.58
2023-03-21T10:16:02.195Z,65.00
2023-03-21T10:18:31.570Z,66.07
2023-03-21T10:20:58.769Z,64.95
2023-03-21T10:23:27.585Z,54.95
2023-03-21T10:26:06.486Z,59.25
2023-03-21T10:33:56.170Z,75.65
2023-03-21T10:36:26.013Z,74.22
2023-03-21T10:39:00.782Z,73.25
2023-03-21T10:41:28.219Z,58.42
2023-03-21T10:44:06.497Z,54.20
2023-03-21T10:46:36.253Z,46.05
2023-03-21T10:49:04.267Z,53.28
2023-03-21T10:51:33.311Z,49.42
2023-03-21T10:54:02.058Z,44.55
2023-03-21T10:56:31.108Z,43.40
2023-03-21T10:59:02.126Z,45.40
2023-03-21T11:01:31.703Z,41.55
2023-03-21T11:04:01.591Z,44.45
2023-03-21T11:06:33.136Z,41.58
2023-03-21T11:09:02.664Z,40.67
2023-03-21T11:11:35.236Z,37.33
2023-03-21T11:14:07.152Z,38.97
2023-03-21T11:16:34.916Z,40.55
2023-03-21T11:19:03.276Z,40.20
2023-03-21T11:21:37.125Z,42.47
2023-03-21T11:24:04.617Z,42.85
2023-03-21T11:26:36.130Z,40.45
2023-03-21T11:29:21.882Z,40.17
2023-03-21T11:31:49.153Z,42.05
2023-03-21T11:34:26.054Z,38.42
2023-03-21T11:36:53.995Z,39.45
2023-03-21T11:39:33.543Z,41.30
2023-03-21T11:42:00.731Z,41.77
2023-03-21T11:44:32.748Z,41.20
2023-03-21T11:47:00.207Z,49.30
2023-03-21T11:49:27.979Z,41.20
2023-03-21T11:52:13.803Z,47.75
2023-03-21T11:54:49.846Z,45.55
2023-03-21T11:57:26.388Z,45.53
2023-03-21T12:00:01.161Z,42.17
2023-03-21T12:02:28.309Z,45.20
2023-03-21T12:05:00.797Z,42.13
2023-03-21T12:07:34.128Z,38.10
2023-03-21T12:10:20.780Z,38.58
2023-03-21T12:13:08.229Z,40.33
2023-03-21T12:15:52.664Z,39.67
2023-03-21T12:18:31.057Z,36.92
2023-03-21T12:21:10.336Z,36.33
2023-03-21T12:23:38.147Z,39.35
2023-03-21T12:26:14.653Z,38.03
2023-03-21T12:29:07.135Z,36.30
2023-03-21T12:31:43.729Z,37.25
2023-03-21T12:34:19.353Z,32.40
2023-03-21T12:36:49.315Z,34.80
2023-03-21T12:39:32.817Z,32.45
2023-03-21T12:42:21.623Z,31.55
2023-03-21T12:44:51.847Z,34.85
2023-03-21T12:47:22.356Z,31.13
2023-03-21T12:52:19.760Z,33.58
2023-03-21T12:57:18.014Z,28.92
2023-03-21T12:59:50.401Z,24.80
2023-03-21T13:02:29.849Z,23.45
2023-03-21T13:05:01.147Z,25.08
2023-03-21T13:07:30.044Z,23.15
2023-03-21T13:09:57.981Z,24.35
2023-03-21T13:12:43.950Z,27.05
2023-03-21T13:15:30.494Z,26.70
2023-03-21T13:18:16.761Z,33.45
2023-03-21T13:20:49.480Z,38.08
2023-03-21T13:23:18.652Z,31.38
2023-03-21T13:25:47.256Z,28.90
2023-03-21T13:28:27.930Z,26.70
2023-03-21T13:31:15.069Z,27.58
2023-03-21T13:33:44.676Z,26.77
2023-03-21T13:36:16.765Z,28.77
2023-03-21T13:38:50.340Z,25.60
2023-03-21T13:41:22.689Z,26.42
2023-03-21T13:44:05.340Z,25.33
2023-03-21T13:46:50.591Z,23.10
2023-03-21T13:49:31.689Z,26.13
2023-03-21T13:52:00.595Z,23.70
2023-03-21T13:54:29.933Z,25.77
2023-03-21T13:57:01.027Z,28.20
2023-03-21T13:59:44.859Z,46.83
2023-03-21T14:02:32.857Z,24.98
2023-03-21T14:05:08.891Z,26.25
2023-03-21T14:07:44.867Z,25.15
2023-03-21T14:10:20.614Z,22.58
2023-03-21T14:12:48.250Z,24.20
2023-03-21T14:15:23.800Z,26.15
2023-03-21T14:17:53.549Z,26.92
2023-03-21T14:20:26.390Z,25.88
2023-03-21T14:22:53.747Z,28.30
2023-03-21T14:25:24.373Z,26.67
2023-03-21T14:27:56.118Z,26.77
2023-03-21T14:30:27.984Z,24.73
2023-03-21T14:32:57.113Z,23.40
2023-03-21T14:35:24.300Z,26.20
2023-03-21T14:37:51.974Z,27.05
2023-03-21T14:40:21.996Z,27.88
2023-03-21T14:42:49.811Z,31.52
2023-03-21T14:45:22.187Z,36.45
2023-03-21T14:47:56.895Z,31.90
2023-03-21T14:50:28.282Z,32.35
2023-03-21T14:52:56.194Z,32.00
2023-03-21T14:55:23.385Z,31.63
2023-03-21T14:57:50.724Z,28.58
2023-03-21T15:00:26.332Z,28.55
2023-03-21T15:02:54.212Z,30.05
2023-03-21T15:05:27.362Z,33.08
2023-03-21T15:07:56.778Z,28.30
2023-03-21T15:10:25.170Z,28.13
2023-03-21T15:12:57.734Z,26.75
2023-03-21T15:15:36.583Z,24.00
2023-03-21T15:18:05.959Z,26.05
2023-03-21T15:20:34.579Z,27.67
2023-03-21T15:23:09.205Z,25.70
2023-03-21T15:25:37.550Z,28.92
2023-03-21T15:28:06.259Z,25.92
2023-03-21T15:30:34.245Z,25.85
2023-03-21T15:33:09.763Z,23.95
2023-03-21T15:35:39.716Z,25.60
2023-03-21T15:38:07.195Z,28.23
2023-03-21T15:40:35.598Z,26.63
2023-03-21T15:43:09.507Z,27.67
2023-03-21T15:45:46.990Z,33.75
2023-03-21T15:48:15.951Z,30.70
2023-03-21T15:50:48.287Z,31.38
2023-03-21T15:53:19.413Z,27.38
2023-03-21T15:55:52.805Z,23.75
2023-03-21T15:58:21.282Z,22.73
2023-03-21T16:00:57.926Z,25.13
2023-03-21T16:03:29.424Z,26.38
2023-03-21T16:06:03.485Z,26.45
2023-03-21T16:08:35.862Z,27.73
2023-03-21T16:11:07.053Z,28.38
2023-03-21T16:13:34.486Z,24.67
2023-03-21T16:16:01.708Z,26.42
2023-03-21T16:18:29.617Z,34.17
2023-03-21T16:20:59.162Z,29.23
2023-03-21T16:23:26.885Z,28.43
2023-03-21T16:26:00.032Z,26.10
2023-03-21T16:28:27.229Z,24.05
2023-03-21T16:30:54.472Z,27.65
2023-03-21T16:33:21.918Z,27.23
2023-03-21T16:35:49.184Z,28.23
2023-03-21T16:38:16.582Z,29.40
2023-03-21T16:40:44.141Z,26.70
2023-03-21T16:43:11.870Z,26.45
2023-03-21T16:45:40.552Z,27.38
2023-03-21T16:48:09.019Z,30.10
2023-03-21T16:50:37.976Z,28.38
2023-03-21T16:53:05.503Z,26.08
2023-03-21T16:55:33.861Z,26.95
2023-03-21T16:58:01.562Z,26.92
2023-03-21T17:00:31.033Z,26.00
2023-03-21T17:03:01.118Z,29.27
2023-03-21T17:05:33.693Z,29.35
2023-03-21T17:08:02.546Z,31.33
2023-03-21T17:10:31.327Z,29.38
2023-03-21T17:12:59.757Z,40.83
2023-03-21T17:15:26.878Z,50.28
2023-03-21T17:17:55.863Z,34.00
2023-03-21T17:20:44.832Z,35.70
2023-03-21T17:23:12.705Z,37.35
2023-03-21T17:25:39.880Z,49.47
2023-03-21T17:28:07.263Z,52.10
2023-03-21T17:30:36.838Z,52.17
2023-03-21T17:33:04.373Z,42.33
2023-03-21T17:35:33.722Z,39.95
2023-03-21T17:38:01.117Z,43.78
2023-03-21T17:40:29.625Z,40.85
2023-03-21T17:42:57.571Z,38.67
2023-03-21T17:45:25.089Z,49.17
2023-03-21T17:47:55.109Z,43.90
2023-03-21T17:50:23.622Z,46.15
2023-03-21T17:52:51.476Z,45.25
2023-03-21T17:55:21.512Z,46.63
2023-03-21T17:57:49.578Z,47.88
2023-03-21T18:00:23.007Z,52.35
2023-03-21T18:02:50.496Z,50.83
2023-03-21T18:05:18.362Z,54.83
2023-03-21T18:08:08.634Z,66.30
2023-03-21T18:10:33.709Z,66.90
2023-03-21T18:13:01.462Z,72.75
2023-03-21T18:15:30.546Z,87.00
2023-03-21T18:17:58.529Z,124.65
2023-03-21T18:20:44.626Z,127.20
2023-03-21T18:23:22.602Z,132.98
2023-03-21T18:25:53.055Z,123.95
2023-03-21T18:31:11.389Z,120.95
2023-03-21T18:33:40.342Z,113.95
2023-03-21T18:36:09.172Z,103.50
2023-03-21T18:38:37.144Z,88.90
2023-03-21T18:41:06.742Z,80.32
2023-03-21T18:48:52.373Z,67.55
2023-03-21T18:51:19.676Z,56.97
2023-03-21T18:53:47.054Z,48.50
2023-03-21T18:56:57.746Z,46.08
2023-03-21T18:59:03.913Z,44.83
2023-03-21T19:01:33.057Z,45.40
2023-03-21T19:04:20.379Z,46.50
2023-03-21T19:06:48.241Z,48.75
2023-03-21T19:09:16.032Z,52.55
2023-03-21T19:11:45.617Z,58.63
2023-03-21T19:14:13.874Z,64.47
2023-03-21T19:17:11.397Z,62.17
2023-03-21T19:19:29.741Z,64.70
2023-03-21T19:21:57.329Z,65.45
2023-03-21T19:24:28.348Z,63.55
2023-03-21T19:26:56.034Z,59.55
2023-03-21T19:29:23.304Z,62.45
2023-03-21T19:31:51.673Z,60.92
2023-03-21T19:34:19.193Z,60.28
2023-03-21T19:36:51.407Z,58.88
2023-03-21T19:39:22.881Z,51.83
2023-03-21T19:41:51.441Z,52.03
2023-03-21T19:44:19.632Z,51.70
2023-03-21T19:46:48.446Z,47.65
2023-03-21T19:49:22.230Z,46.20
2023-03-21T19:51:49.779Z,56.05
2023-03-21T19:54:18.545Z,59.53
2023-03-21T19:56:48.201Z,58.13
2023-03-21T19:59:15.921Z,52.35
2023-03-21T20:01:43.588Z,55.97
2023-03-21T20:04:11.354Z,68.43
2023-03-21T20:06:38.650Z,75.35
2023-03-21T20:12:05.810Z,90.63
2023-03-21T20:14:49.248Z,80.85
2023-03-21T20:17:16.876Z,85.22
2023-03-21T20:20:12.981Z,99.88
2023-03-21T20:25:27.687Z,107.28
2023-03-21T20:28:14.520Z,104.82
2023-03-21T20:30:50.706Z,111.95
2023-03-21T20:33:18.100Z,110.75
2023-03-21T20:36:32.886Z,113.05
2023-03-21T20:38:33.944Z,103.07
2023-03-21T20:41:02.875Z,103.43
2023-03-21T20:46:18.328Z,116.65
2023-03-21T20:48:48.928Z,194.75
2023-03-21T20:52:24.271Z,164.13
2023-03-21T20:54:05.047Z,168.88
2023-03-21T20:56:32.318Z,168.57
2023-03-21T20:59:15.376Z,191.32
2023-03-21T21:01:45.313Z,150.90
2023-03-21T21:04:15.167Z,168.45
2023-03-21T21:06:43.819Z,197.45
2023-03-21T21:09:10.993Z,171.85
2023-03-21T21:14:27.315Z,156.45
2023-03-21T21:16:54.731Z,150.98
2023-03-21T21:19:22.670Z,141.85
2023-03-21T21:21:51.746Z,126.20
2023-03-21T21:24:19.117Z,140.70
2023-03-21T21:26:46.500Z,156.00
2023-03-21T21:29:16.942Z,132.73
2023-03-21T21:31:51.953Z,117.32
2023-03-21T21:34:19.849Z,116.57
2023-03-21T21:36:47.330Z,123.53
2023-03-21T21:39:17.696Z,166.27
2023-03-21T21:41:44.831Z,153.63
2023-03-21T21:44:11.989Z,157.02
2023-03-21T21:46:39.249Z,142.02
2023-03-21T21:49:06.680Z,166.32
2023-03-21T21:51:34.362Z,151.38
2023-03-21T21:54:03.935Z,143.15
2023-03-21T21:56:38.571Z,151.57
2023-03-21T21:59:05.806Z,152.57
2023-03-21T22:01:38.688Z,131.32
2023-03-21T22:04:10.979Z,127.63
2023-03-21T22:06:38.489Z,132.95
2023-03-21T22:09:07.019Z,122.32
2023-03-21T22:11:34.376Z,120.13
2023-03-21T22:14:01.505Z,121.15
2023-03-21T22:16:28.892Z,115.13
2023-03-21T22:18:56.229Z,116.55
2023-03-21T22:21:25.469Z,117.15
2023-03-21T22:23:52.587Z,111.30
2023-03-21T22:26:19.824Z,121.10
2023-03-21T22:28:47.052Z,116.13
2023-03-21T22:31:15.963Z,113.82
2023-03-21T22:33:43.653Z,133.23
2023-03-21T22:36:11.251Z,152.30
2023-03-21T22:38:38.782Z,154.65
2023-03-21T22:41:07.007Z,129.05
2023-03-21T22:43:35.326Z,133.68
2023-03-21T22:46:03.550Z,124.90
2023-03-21T22:48:30.977Z,138.30
2023-03-21T22:51:01.035Z,141.32
2023-03-21T22:53:28.428Z,119.22
2023-03-21T22:55:55.951Z,110.65
2023-03-21T22:58:23.135Z,111.88
2023-03-21T23:00:50.329Z,118.93
2023-03-21T23:03:17.795Z,118.88
2023-03-21T23:05:45.449Z,131.10
2023-03-21T23:08:13.201Z,130.40
2023-03-21T23:10:43.529Z,122.95
2023-03-21T23:13:11.048Z,117.68
2023-03-21T23:15:38.627Z,133.90
2023-03-21T23:18:07.147Z,133.52
2023-03-21T23:20:34.283Z,134.00
2023-03-21T23:23:01.445Z,115.45
2023-03-21T23:25:33.605Z,148.95
2023-03-21T23:28:01.978Z,128.05
2023-03-21T23:30:29.247Z,122.30
2023-03-21T23:32:56.538Z,139.43
2023-03-21T23:35:23.684Z,122.85
2023-03-21T23:37:52.622Z,110.93
2023-03-21T23:40:20.797Z,106.30
2023-03-21T23:42:47.964Z,111.85
2023-03-21T23:45:15.818Z,146.00
2023-03-21T23:47:43.071Z,109.25
2023-03-21T23:50:11.030Z,120.53
2023-03-21T23:52:38.208Z,116.72
2023-03-21T23:55:06.057Z,119.10
2023-03-21T23:57:33.269Z,118.90
